Time;durP1;ratioP1;P1;durP2;ratioP2;P2;SDS_P1;SDS_P2;PMS_P1;PMS_P2;Temp;Humidity;BMP_temperature;BMP_pressure;BME280_temperature;BME280_humidity;BME280_pressure;Samples;Min_cycle;Max_cycle;Signal;HPM_P1;HPM_P2
2023/04/19 00:01:50;;;;;;;5.70;3.00;;;;;;;11.40;52.85;100437.48;107857;1258;72658;-89
2023/04/19 00:04:19;;;;;;;5.60;2.90;;;;;;;11.32;52.81;100434.91;107895;1258;71420;-89
2023/04/19 00:06:50;;;;;;;4.50;2.70;;;;;;;11.26;53.02;100428.48;107885;1259;62066;-88
2023/04/19 00:09:21;;;;;;;6.10;2.70;;;;;;;11.12;53.16;100430.85;107838;1258;60345;-90
2023/04/19 00:11:51;;;;;;;5.60;3.00;;;;;;;10.95;53.27;100430.91;107885;1258;72916;-90
2023/04/19 00:14:22;;;;;;;6.50;2.60;;;;;;;10.86;53.66;100435.48;107779;1259;73732;-89
2023/04/19 00:16:52;;;;;;;7.00;3.00;;;;;;;10.77;53.81;100431.59;107752;1263;72084;-89
2023/04/19 00:19:22;;;;;;;8.00;3.20;;;;;;;10.69;53.97;100430.38;107861;1259;61795;-88
2023/04/19 00:21:51;;;;;;;5.10;2.70;;;;;;;10.64;54.03;100430.79;107863;1259;61627;-89
2023/04/19 00:24:19;;;;;;;14.10;4.30;;;;;;;10.64;53.96;100430.26;107853;1258;74050;-90
2023/04/19 00:26:47;;;;;;;5.30;2.60;;;;;;;10.62;53.95;100429.12;107805;1259;73999;-88
2023/04/19 00:29:17;;;;;;;7.80;3.20;;;;;;;10.61;53.82;100425.91;108830;1259;71505;-88
2023/04/19 00:31:45;;;;;;;7.10;3.10;;;;;;;10.61;53.90;100426.27;109056;1259;60443;-83
2023/04/19 00:34:14;;;;;;;5.80;3.00;;;;;;;10.61;53.85;100425.55;109004;1259;59312;-88
2023/04/19 00:36:43;;;;;;;6.20;3.10;;;;;;;10.61;53.94;100419.55;108031;1259;72940;-89
2023/04/19 00:39:14;;;;;;;5.00;2.90;;;;;;;10.62;54.16;100417.36;107835;1259;73633;-90
2023/04/19 00:41:42;;;;;;;5.50;2.80;;;;;;;10.61;54.10;100414.53;107881;1263;73704;-90
2023/04/19 00:44:13;;;;;;;5.40;3.10;;;;;;;10.58;54.30;100414.45;107875;1259;60474;-89
2023/04/19 00:46:42;;;;;;;5.90;3.10;;;;;;;10.56;54.25;100412.00;107887;1259;61218;-90
2023/04/19 00:49:17;;;;;;;7.40;3.50;;;;;;;10.51;54.26;100414.91;108008;1259;74596;-91
2023/04/19 00:51:46;;;;;;;5.80;3.20;;;;;;;10.49;54.15;100413.30;107957;1259;72099;-90
2023/04/19 00:54:14;;;;;;;6.30;3.00;;;;;;;10.48;54.19;100406.77;107996;1258;72579;-89
2023/04/19 00:56:47;;;;;;;6.30;3.40;;;;;;;10.47;54.19;100398.19;107837;1263;61329;-89
2023/04/19 00:59:17;;;;;;;6.10;3.40;;;;;;;10.46;54.01;100401.27;107971;1258;60374;-91
2023/04/19 01:01:48;;;;;;;7.60;3.90;;;;;;;10.46;54.02;100401.42;108048;1259;74795;-90
2023/04/19 01:04:19;;;;;;;5.80;3.20;;;;;;;10.44;54.16;100396.93;108030;1260;72520;-90
2023/04/19 01:06:50;;;;;;;6.80;3.70;;;;;;;10.42;54.05;100400.44;108522;1258;73510;-88
2023/04/19 01:09:23;;;;;;;7.80;3.30;;;;;;;10.41;54.10;100398.95;109171;1258;58271;-88
2023/04/19 01:11:52;;;;;;;6.60;3.30;;;;;;;10.41;54.01;100397.98;109155;1259;60124;-84
2023/04/19 01:14:22;;;;;;;6.30;3.30;;;;;;;10.43;53.92;100396.92;109196;1258;72556;-84
2023/04/19 01:16:53;;;;;;;5.50;3.00;;;;;;;10.46;53.82;100397.38;108544;1259;70530;-90
2023/04/19 01:19:22;;;;;;;6.80;3.80;;;;;;;10.48;53.87;100394.02;108165;1259;72558;-88
2023/04/19 01:21:51;;;;;;;6.10;3.30;;;;;;;10.49;53.88;100389.16;108229;1259;61577;-89
2023/04/19 01:24:19;;;;;;;7.90;3.70;;;;;;;10.50;53.73;100386.61;108379;1259;61508;-90
2023/04/19 01:26:50;;;;;;;6.00;3.20;;;;;;;10.50;53.67;100385.11;108078;1259;74795;-90
2023/04/19 01:29:20;;;;;;;8.60;3.70;;;;;;;10.48;53.63;100386.05;107861;1259;73796;-89
2023/04/19 01:31:52;;;;;;;7.20;3.60;;;;;;;10.48;53.54;100387.02;107858;1259;73913;-90
2023/04/19 01:34:22;;;;;;;;;;;;;;;10.46;53.33;100389.63;107881;1258;60304;-89
2023/04/19 01:36:51;;;;;;;6.40;3.30;;;;;;;10.43;53.27;100384.60;107729;1259;60358;-88
2023/04/19 01:39:21;;;;;;;6.40;3.50;;;;;;;10.39;53.59;100386.64;107630;1259;74721;-90
2023/04/19 01:41:49;;;;;;;5.50;3.10;;;;;;;10.33;53.48;100386.84;107783;1259;72851;-91
2023/04/19 01:44:18;;;;;;;5.90;2.80;;;;;;;10.30;53.58;100381.87;107818;1258;71419;-91
2023/04/19 01:46:48;;;;;;;7.00;3.20;;;;;;;10.28;53.90;100384.23;107853;1259;61610;-89
2023/04/19 01:49:17;;;;;;;6.50;3.50;;;;;;;10.24;54.00;100380.84;107850;1259;60307;-90
2023/04/19 01:51:49;;;;;;;8.60;4.10;;;;;;;10.18;54.17;100378.38;107743;1259;74534;-89
2023/04/19 01:54:17;;;;;;;6.80;3.20;;;;;;;10.12;54.28;100379.59;107751;1259;74010;-88
2023/04/19 01:56:46;;;;;;;7.90;3.90;;;;;;;10.09;54.29;100380.27;107727;1258;70523;-89
2023/04/19 01:59:17;;;;;;;6.90;3.30;;;;;;;10.05;54.35;100380.40;108330;1263;60899;-91
2023/04/19 02:01:46;;;;;;;6.00;3.20;;;;;;;10.02;54.33;100377.92;109002;1259;59449;-89
2023/04/19 02:04:14;;;;;;;6.30;3.50;;;;;;;10.00;54.60;100376.17;109043;1259;74289;-87
2023/04/19 02:06:44;;;;;;;5.00;3.20;;;;;;;9.98;54.71;100375.92;108760;1259;70798;-89
2023/04/19 02:09:13;;;;;;;7.70;3.60;;;;;;;9.95;54.84;100373.35;108166;1258;72437;-91
2023/04/19 02:11:42;;;;;;;7.60;3.50;;;;;;;9.92;54.93;100370.29;107927;1258;60642;-91
2023/04/19 02:14:14;;;;;;;6.10;3.50;;;;;;;9.89;55.06;100370.16;107913;1259;62363;-88
2023/04/19 02:16:46;;;;;;;6.50;3.80;;;;;;;9.84;55.29;100372.27;107905;1259;75144;-90
2023/04/19 02:19:14;;;;;;;8.40;3.40;;;;;;;9.77;55.47;100368.31;107777;1259;72608;-89
2023/04/19 02:21:43;;;;;;;8.70;3.70;;;;;;;9.74;55.64;100369.89;108025;1259;72928;-90
2023/04/19 02:24:14;;;;;;;5.30;3.30;;;;;;;9.72;55.61;100367.42;108709;1258;61943;-90
2023/04/19 02:26:45;;;;;;;7.60;3.70;;;;;;;9.70;55.62;100366.84;108701;1259;60323;-91
2023/04/19 02:29:19;;;;;;;6.80;3.60;;;;;;;9.69;55.70;100369.81;109045;1258;72577;-88
2023/04/19 02:31:48;;;;;;;6.30;3.60;;;;;;;9.70;55.82;100372.91;109094;1259;72828;-82
2023/04/19 02:34:27;;;;;;;7.00;3.40;;;;;;;9.71;55.87;100377.25;109071;1259;71245;-90
2023/04/19 02:36:57;;;;;;;6.60;3.70;;;;;;;9.68;56.00;100374.16;109095;1258;59377;-81
2023/04/19 02:39:25;;;;;;;6.10;3.30;;;;;;;9.67;56.04;100375.33;109071;1259;59945;-84
2023/04/19 02:41:54;;;;;;;6.20;3.40;;;;;;;9.69;56.01;100378.02;108280;1259;73895;-89
2023/04/19 02:44:23;;;;;;;6.40;3.40;;;;;;;9.69;55.97;100377.38;108527;1259;72849;-90
2023/04/19 02:46:52;;;;;;;5.50;3.60;;;;;;;9.70;56.01;100381.38;107864;1259;71267;-91
2023/04/19 02:49:21;;;;;;;6.40;3.70;;;;;;;9.73;55.90;100381.46;108049;1259;61683;-90
2023/04/19 02:51:54;;;;;;;7.00;3.70;;;;;;;9.74;55.89;100384.62;108049;1259;60446;-91
2023/04/19 02:54:25;;;;;;;7.90;3.70;;;;;;;9.75;55.89;100381.16;107810;1259;73076;-89
2023/04/19 02:56:53;;;;;;;6.70;3.30;;;;;;;9.74;55.94;100376.66;107821;1259;73668;-89
2023/04/19 02:59:22;;;;;;;7.80;4.10;;;;;;;9.73;55.89;100377.77;107760;1259;72323;-89
2023/04/19 03:01:50;;;;;;;6.90;3.30;;;;;;;9.71;55.73;100372.92;107722;1259;61156;-89
2023/04/19 03:04:21;;;;;;;6.90;3.70;;;;;;;9.70;55.74;100373.92;107809;1259;60407;-90
2023/04/19 03:06:51;;;;;;;7.40;3.80;;;;;;;9.70;55.80;100370.61;107805;1259;74119;-90
2023/04/19 03:09:21;;;;;;;6.90;3.70;;;;;;;9.69;55.78;100369.91;107827;1259;75473;-91
2023/04/19 03:11:52;;;;;;;5.80;3.50;;;;;;;9.68;55.74;100367.83;107913;1259;72613;-89
2023/04/19 03:14:21;;;;;;;6.30;3.90;;;;;;;9.69;55.86;100369.21;108045;1259;61669;-90
2023/04/19 03:16:55;;;;;;;7.30;3.90;;;;;;;9.71;55.93;100370.05;108318;1259;60268;-90
2023/04/19 03:19:23;;;;;;;7.00;3.80;;;;;;;9.73;55.77;100368.23;108409;1259;73203;-89
2023/04/19 03:21:52;;;;;;;7.20;3.70;;;;;;;9.74;55.90;100365.89;108273;1259;72540;-90
2023/04/19 03:24:31;;;;;;;8.50;3.70;;;;;;;9.81;55.78;100365.52;108224;1259;72481;-89
2023/04/19 03:27:08;;;;;;;7.80;3.40;;;;;;;9.91;55.79;100362.54;108382;1259;60914;-89
2023/04/19 03:29:36;;;;;;;7.70;3.40;;;;;;;9.96;55.79;100360.86;108859;1259;58440;-90
2023/04/19 03:32:11;;;;;;;6.40;3.50;;;;;;;10.02;55.87;100354.55;108690;1259;74355;-92
2023/04/19 03:34:40;;;;;;;6.50;3.50;;;;;;;10.06;55.75;100356.02;109037;1259;72391;-90
2023/04/19 03:37:09;;;;;;;5.90;3.90;;;;;;;10.14;55.58;100352.96;108697;1259;70581;-89
2023/04/19 03:39:38;;;;;;;8.20;3.40;;;;;;;10.22;55.61;100352.79;108173;1259;59391;-90
2023/04/19 03:42:07;;;;;;;7.10;3.20;;;;;;;10.27;55.47;100354.88;107793;1259;60386;-89
2023/04/19 03:45:09;;;;;;;8.70;3.80;;;;;;;10.35;55.44;100357.20;107618;1259;74285;-89
2023/04/19 03:47:41;;;;;;;7.70;3.50;;;;;;;10.39;55.28;100360.16;107820;1259;73012;-89
2023/04/19 03:50:10;;;;;;;6.00;3.60;;;;;;;10.44;55.11;100358.44;107803;1259;72885;-90
2023/04/19 03:52:39;;;;;;;7.10;3.60;;;;;;;10.48;54.93;100359.30;107992;1259;60377;-89
2023/04/19 03:55:11;;;;;;;5.80;3.60;;;;;;;10.53;54.86;100353.02;107782;1258;61012;-91
2023/04/19 03:57:40;;;;;;;6.80;3.30;;;;;;;10.58;54.72;100355.48;107754;1259;72747;-90
2023/04/19 04:00:15;;;;;;;6.00;3.60;;;;;;;10.61;54.72;100352.89;107179;1259;565486;-90
2023/04/19 04:02:46;;;;;;;10.20;3.30;;;;;;;10.60;54.62;100349.84;107577;1259;72527;-92
2023/04/19 04:05:15;;;;;;;6.40;3.30;;;;;;;10.61;54.45;100351.13;107510;1259;61678;-90
2023/04/19 04:07:44;;;;;;;6.20;3.40;;;;;;;10.68;54.58;100353.12;107625;1259;61421;-89
2023/04/19 04:10:13;;;;;;;8.50;3.90;;;;;;;10.73;54.46;100355.66;107658;1259;73520;-90
2023/04/19 04:12:43;;;;;;;5.90;3.40;;;;;;;10.78;54.43;100354.92;107688;1259;73992;-89
2023/04/19 04:15:15;;;;;;;;;;;;;;;10.82;54.52;100355.79;107749;1259;72664;-90
2023/04/19 04:17:47;;;;;;;6.80;3.30;;;;;;;10.84;54.30;100352.38;107847;1259;60400;-90
2023/04/19 04:20:16;;;;;;;7.20;3.30;;;;;;;10.87;54.24;100353.07;107893;1259;60403;-91
2023/04/19 04:22:46;;;;;;;5.80;3.60;;;;;;;10.92;54.11;100356.50;107777;1259;73377;-90
2023/04/19 04:25:16;;;;;;;6.70;3.90;;;;;;;10.96;54.02;100354.64;107749;1258;73856;-90
2023/04/19 04:27:50;;;;;;;9.10;3.70;;;;;;;10.98;53.90;100345.33;107715;1259;71415;-91
2023/04/19 04:30:20;;;;;;;7.90;3.70;;;;;;;11.00;53.79;100347.22;107765;1258;61672;-90
2023/04/19 04:32:50;;;;;;;6.70;3.80;;;;;;;11.03;53.60;100346.39;107717;1259;61039;-90
2023/04/19 04:35:19;;;;;;;7.30;3.50;;;;;;;11.11;53.45;100354.13;107763;1259;75572;-91
2023/04/19 04:37:58;;;;;;;7.80;3.90;;;;;;;11.16;53.42;100353.23;107691;1259;73197;-91
2023/04/19 04:40:28;;;;;;;6.80;3.60;;;;;;;11.24;53.24;100355.27;108155;1259;73479;-90
2023/04/19 04:42:59;;;;;;;6.80;3.70;;;;;;;11.40;53.25;100353.20;107794;1259;60384;-90
2023/04/19 04:45:28;;;;;;;8.80;4.00;;;;;;;11.57;52.86;100356.61;107845;1260;60378;-90
2023/04/19 04:47:57;;;;;;;6.80;3.50;;;;;;;11.74;52.35;100360.98;107816;1259;73896;-90
2023/04/19 04:50:26;;;;;;;7.20;3.90;;;;;;;11.87;52.05;100360.31;107691;1259;72703;-89
2023/04/19 04:52:55;;;;;;;7.00;4.00;;;;;;;11.99;51.67;100365.64;107772;1259;72367;-91
2023/04/19 04:55:28;;;;;;;6.80;3.60;;;;;;;12.10;51.53;100369.00;107787;1259;63209;-89
2023/04/19 04:57:58;;;;;;;6.80;3.40;;;;;;;12.18;51.59;100368.98;107881;1259;61280;-89
2023/04/19 05:00:42;;;;;;;8.70;3.40;;;;;;;12.25;51.59;100372.92;108344;1258;73661;-89
2023/04/19 05:03:10;;;;;;;9.20;3.60;;;;;;;12.30;51.29;100376.02;109009;1258;72613;-92
2023/04/19 05:05:48;;;;;;;7.20;3.80;;;;;;;12.37;51.30;100377.39;109110;1259;72551;-91
2023/04/19 05:08:25;;;;;;;6.60;3.80;;;;;;;12.47;51.21;100372.16;108411;1258;60473;-91
2023/04/19 05:10:57;;;;;;;7.10;3.70;;;;;;;12.56;51.21;100371.27;107775;1259;60569;-90
2023/04/19 05:13:28;;;;;;;7.70;4.10;;;;;;;12.69;51.16;100374.42;107842;1259;73055;-91
2023/04/19 05:15:59;;;;;;;6.80;3.70;;;;;;;12.77;50.93;100371.06;107848;1259;73735;-92
2023/04/19 05:18:28;;;;;;;5.90;3.30;;;;;;;12.88;50.83;100365.91;107837;1259;73902;-90
2023/04/19 05:20:56;;;;;;;6.10;3.70;;;;;;;13.05;50.70;100371.86;107811;1259;61950;-92
2023/04/19 05:23:28;;;;;;;8.90;3.50;;;;;;;13.21;50.45;100366.69;107853;1259;61304;-91
2023/04/19 05:25:57;;;;;;;6.10;3.20;;;;;;;13.37;49.82;100369.34;107882;1259;72920;-90
2023/04/19 05:28:27;;;;;;;7.00;3.80;;;;;;;13.53;49.16;100363.67;107809;1259;73325;-91
2023/04/19 05:31:05;;;;;;;7.20;3.50;;;;;;;13.70;48.52;100365.88;107821;1262;73909;-91
2023/04/19 05:33:38;;;;;;;8.10;3.90;;;;;;;13.81;48.13;100366.70;107906;1258;61642;-93
2023/04/19 05:36:11;;;;;;;8.50;3.80;;;;;;;13.86;47.88;100367.56;107865;1259;60426;-92
2023/04/19 05:38:41;;;;;;;7.70;4.00;;;;;;;13.95;48.15;100365.44;107977;1259;74835;-92
2023/04/19 05:41:11;;;;;;;8.20;3.50;;;;;;;14.06;47.87;100363.77;107666;1259;73680;-91
2023/04/19 05:43:39;;;;;;;7.10;3.70;;;;;;;14.14;47.65;100357.77;107834;1259;73587;-91
2023/04/19 05:46:09;;;;;;;7.40;3.70;;;;;;;14.20;47.05;100353.30;107957;1259;60401;-90
2023/04/19 05:48:37;;;;;;;6.80;3.60;;;;;;;14.26;46.88;100355.75;107908;1259;60335;-91
2023/04/19 05:51:34;;;;;;;7.00;3.40;;;;;;;14.31;46.29;100356.45;107668;1259;74545;-92
2023/04/19 05:54:16;;;;;;;6.60;3.50;;;;;;;14.32;46.54;100353.83;107821;1263;73677;-92
2023/04/19 05:56:48;;;;;;;;;;;;;;;14.32;46.41;100353.82;107846;1259;71698;-92
2023/04/19 05:59:19;;;;;;;8.90;3.40;;;;;;;14.34;46.36;100351.76;107792;1259;61121;-92
2023/04/19 06:01:48;;;;;;;6.80;3.40;;;;;;;14.38;46.44;100349.61;107827;1259;60711;-91
2023/04/19 06:04:16;;;;;;;7.20;3.30;;;;;;;14.43;46.31;100348.52;107809;1258;73821;-91
2023/04/19 06:06:46;;;;;;;7.10;3.30;;;;;;;14.52;45.75;100346.97;107858;1259;72329;-91
2023/04/19 06:09:22;;;;;;;7.50;3.50;;;;;;;14.56;45.36;100347.21;107717;1258;72656;-92
2023/04/19 06:11:53;;;;;;;8.30;3.80;;;;;;;14.62;45.78;100346.76;107809;1259;59485;-90
2023/04/19 06:14:22;;;;;;;7.40;3.20;;;;;;;14.70;45.97;100352.94;107780;1259;60568;-92
2023/04/19 06:16:53;;;;;;;7.50;3.40;;;;;;;14.77;45.76;100343.60;107923;1259;73865;-91
2023/04/19 06:19:22;;;;;;;6.40;3.50;;;;;;;14.84;46.02;100343.02;107743;1259;72158;-91
2023/04/19 06:21:51;;;;;;;7.20;3.40;;;;;;;14.88;45.40;100341.19;107742;1259;73692;-91
2023/04/19 06:24:19;;;;;;;8.70;3.90;;;;;;;14.91;45.18;100343.67;107795;1259;61098;-92
2023/04/19 06:26:48;;;;;;;6.30;3.20;;;;;;;14.98;45.26;100348.41;107779;1259;60845;-90
2023/04/19 06:29:23;;;;;;;8.00;3.60;;;;;;;15.02;45.36;100348.83;108165;1259;73829;-88
2023/04/19 06:31:57;;;;;;;9.10;3.30;;;;;;;15.10;45.40;100346.30;108996;1259;72967;-85
2023/04/19 06:34:26;;;;;;;11.40;3.40;;;;;;;15.17;45.13;100347.93;108954;1259;72097;-91
2023/04/19 06:36:56;;;;;;;7.50;3.30;;;;;;;15.22;45.17;100342.58;108752;1259;60544;-91
2023/04/19 06:39:27;;;;;;;7.20;3.30;;;;;;;15.28;44.85;100342.27;108009;1259;60560;-90
2023/04/19 06:41:56;;;;;;;7.10;3.30;;;;;;;15.30;45.14;100340.63;107965;1259;74823;-91
2023/04/19 06:44:27;;;;;;;6.70;3.50;;;;;;;15.32;45.31;100335.20;107890;1259;72311;-91
2023/04/19 06:46:58;;;;;;;10.70;4.10;;;;;;;15.32;45.03;100332.08;107895;1259;72686;-91
2023/04/19 06:49:27;;;;;;;10.10;3.60;;;;;;;15.33;44.88;100335.34;108041;1259;60470;-91
2023/04/19 06:52:02;;;;;;;8.20;3.20;;;;;;;15.33;45.28;100335.23;107979;1259;60302;-91
2023/04/19 06:54:32;;;;;;;8.80;3.40;;;;;;;15.38;45.29;100332.08;107918;1264;74607;-90
2023/04/19 06:57:01;;;;;;;8.30;3.40;;;;;;;15.45;45.44;100334.94;107717;1263;71857;-90
2023/04/19 06:59:32;;;;;;;8.70;3.00;;;;;;;15.54;45.80;100334.89;107814;1259;73655;-91
2023/04/19 07:02:00;;;;;;;7.10;3.20;;;;;;;15.60;45.42;100334.52;107858;1259;60429;-92
2023/04/19 07:04:30;;;;;;;9.10;3.80;;;;;;;15.68;45.19;100336.17;108172;1259;61211;-92
2023/04/19 07:07:12;;;;;;;8.10;3.20;;;;;;;15.74;44.94;100336.30;108007;1259;73560;-92
2023/04/19 07:09:40;;;;;;;8.60;3.30;;;;;;;15.83;45.36;100334.63;107831;1259;72296;-90
2023/04/19 07:12:09;;;;;;;8.40;3.10;;;;;;;15.96;44.86;100335.41;107856;1259;74077;-91
2023/04/19 07:14:38;;;;;;;8.40;2.90;;;;;;;15.94;45.00;100335.03;107847;1259;60326;-89
2023/04/19 07:17:07;;;;;;;8.80;3.60;;;;;;;16.04;44.93;100332.95;107875;1259;61344;-91
2023/04/19 07:19:35;;;;;;;5.60;3.40;;;;;;;16.06;44.73;100335.23;107848;1259;74032;-90
2023/04/19 07:22:05;;;;;;;6.80;2.90;;;;;;;16.08;44.80;100336.86;107869;1259;70899;-90
2023/04/19 07:24:34;;;;;;;7.70;3.40;;;;;;;16.09;44.68;100334.19;107819;1259;73760;-91
2023/04/19 07:27:03;;;;;;;7.70;3.10;;;;;;;16.16;44.74;100337.35;107846;1259;60422;-92
2023/04/19 07:29:34;;;;;;;7.60;3.20;;;;;;;16.25;44.76;100334.58;107988;1259;60999;-90
2023/04/19 07:32:05;;;;;;;6.80;2.80;;;;;;;16.33;44.64;100336.73;108260;1259;75100;-93
2023/04/19 07:34:40;;;;;;;11.10;3.20;;;;;;;16.39;44.06;100338.45;107832;1259;72849;-92
2023/04/19 07:37:11;;;;;;;11.10;3.10;;;;;;;16.43;43.98;100344.24;108453;1259;72626;-90
2023/04/19 07:39:39;;;;;;;7.70;2.80;;;;;;;16.50;44.17;100343.67;108282;1259;60528;-90
2023/04/19 07:42:10;;;;;;;6.30;2.70;;;;;;;16.58;44.17;100342.96;108282;1259;60248;-87
2023/04/19 07:44:39;;;;;;;8.20;3.00;;;;;;;16.66;43.86;100338.09;108186;1259;73889;-92
2023/04/19 07:47:07;;;;;;;7.30;2.60;;;;;;;16.72;43.95;100336.64;108747;1259;73011;-92
2023/04/19 07:49:36;;;;;;;9.70;3.10;;;;;;;16.79;43.24;100330.25;109039;1259;72759;-92
2023/04/19 07:52:08;;;;;;;8.90;2.80;;;;;;;16.88;43.53;100326.64;108939;1259;60378;-92
2023/04/19 07:54:38;;;;;;;11.70;3.30;;;;;;;16.98;43.14;100327.99;108977;1259;60036;-92
2023/04/19 07:57:06;;;;;;;7.00;3.10;;;;;;;17.04;43.19;100327.13;108955;1259;73908;-91
2023/04/19 07:59:38;;;;;;;8.10;2.90;;;;;;;17.15;43.37;100325.59;109228;1258;72609;-79
2023/04/19 08:02:09;;;;;;;9.40;3.00;;;;;;;17.28;42.55;100323.27;109141;1259;72957;-81
2023/04/19 08:05:02;;;;;;;;;;;;;;;17.42;42.57;100323.26;109472;1256;60281;-82
2023/04/19 08:07:57;;;;;;;9.70;2.80;;;;;;;17.56;42.80;100321.05;108731;1257;59579;-93
2023/04/19 08:10:29;;;;;;;9.10;3.00;;;;;;;17.78;42.82;100318.59;108504;1257;74084;-94
2023/04/19 08:12:58;;;;;;;7.00;2.90;;;;;;;17.95;42.33;100311.58;108560;1259;74003;-95
2023/04/19 08:15:34;;;;;;;7.80;3.00;;;;;;;18.08;42.00;100310.59;107944;1257;71535;-93
2023/04/19 08:18:05;;;;;;;9.30;2.80;;;;;;;18.19;40.79;100303.42;107822;1258;60469;-93
2023/04/19 08:20:35;;;;;;;8.10;3.30;;;;;;;18.19;40.35;100307.36;107997;1257;60445;-90
2023/04/19 08:23:06;;;;;;;10.50;3.40;;;;;;;18.17;40.27;100299.68;107975;1260;73875;-91
2023/04/19 08:25:49;;;;;;;7.50;3.50;;;;;;;18.23;40.87;100299.08;107901;1259;73967;-90
2023/04/19 08:28:19;;;;;;;8.10;3.10;;;;;;;18.28;40.59;100298.48;107885;1259;74258;-93
2023/04/19 08:30:49;;;;;;;6.90;3.00;;;;;;;18.32;40.39;100296.18;107883;1258;61370;-93
2023/04/19 08:33:18;;;;;;;6.90;2.80;;;;;;;18.38;40.57;100293.13;107987;1259;60346;-91
2023/04/19 08:35:47;;;;;;;8.80;2.70;;;;;;;18.44;40.12;100286.56;108055;1259;73019;-90
2023/04/19 08:38:19;;;;;;;12.00;2.90;;;;;;;18.50;40.13;100287.27;108230;1259;72274;-90
2023/04/19 08:40:51;;;;;;;8.70;2.90;;;;;;;18.56;40.31;100288.32;107786;1258;71683;-87
2023/04/19 08:43:20;;;;;;;11.20;3.00;;;;;;;18.66;39.36;100285.81;107951;1260;60436;-90
2023/04/19 08:45:51;;;;;;;8.60;2.70;;;;;;;18.75;39.78;100282.30;108016;1258;60213;-92
2023/04/19 08:48:35;;;;;;;10.10;2.70;;;;;;;18.93;39.93;100276.86;108143;1259;72482;-92
2023/04/19 08:51:07;;;;;;;10.50;2.40;;;;;;;19.10;39.74;100277.20;108086;1257;73939;-93
2023/04/19 08:53:38;;;;;;;8.50;2.90;;;;;;;19.24;39.14;100277.96;108096;1258;72559;-92
2023/04/19 08:56:09;;;;;;;14.70;3.30;;;;;;;19.26;38.36;100276.43;108146;1258;60553;-91
2023/04/19 08:58:59;;;;;;;13.40;2.90;;;;;;;19.19;38.43;100275.59;108019;1260;60319;-92
2023/04/19 09:01:45;;;;;;;9.50;2.70;;;;;;;19.25;39.09;100284.82;108089;1260;74746;-91
2023/04/19 09:04:15;;;;;;;10.30;3.20;;;;;;;19.32;38.64;100280.56;108178;1259;73813;-91
2023/04/19 09:07:07;;;;;;;7.60;2.40;;;;;;;19.40;38.15;100279.27;108640;1259;71682;-86
2023/04/19 09:09:36;;;;;;;13.80;2.50;;;;;;;19.44;38.01;100278.27;108984;1259;60167;-82
2023/04/19 09:12:34;;;;;;;12.50;2.60;;;;;;;19.56;38.27;100280.30;109028;1259;59975;-90
2023/04/19 09:15:05;;;;;;;11.40;2.70;;;;;;;19.65;37.79;100288.69;109098;1259;73837;-92
2023/04/19 09:17:39;;;;;;;11.00;2.90;;;;;;;19.74;37.27;100283.92;108660;1259;72820;-88
2023/04/19 09:20:08;;;;;;;11.10;2.80;;;;;;;19.76;37.10;100288.42;108621;1259;72429;-88
2023/04/19 09:22:36;;;;;;;11.60;3.00;;;;;;;19.78;37.33;100287.88;108689;1259;60085;-90
2023/04/19 09:25:06;;;;;;;12.60;2.60;;;;;;;19.88;37.32;100290.39;108787;1257;59665;-89
2023/04/19 09:27:40;;;;;;;16.20;3.20;;;;;;;19.98;36.51;100292.25;108784;1258;74661;-91
2023/04/19 09:30:09;;;;;;;14.80;2.90;;;;;;;20.02;36.03;100290.77;109046;1257;72798;-91
2023/04/19 09:32:51;;;;;;;11.00;2.50;;;;;;;20.08;36.38;100287.86;109087;1258;71115;-89
2023/04/19 09:35:20;;;;;;;17.40;2.90;;;;;;;20.22;35.78;100287.63;108202;1257;60406;-92
2023/04/19 09:37:59;;;;;;;12.80;2.80;;;;;;;20.32;35.55;100279.49;107854;1262;59481;-87
2023/04/19 09:40:31;;;;;;;12.00;2.60;;;;;;;20.28;35.04;100276.07;107861;1259;75086;-91
2023/04/19 09:43:02;;;;;;;11.80;3.10;;;;;;;20.21;36.01;100286.27;107910;1263;71033;-92
2023/04/19 09:45:54;;;;;;;10.30;2.60;;;;;;;20.20;36.30;100279.34;108019;1259;71597;-87
2023/04/19 09:48:31;;;;;;;11.30;2.40;;;;;;;20.28;36.18;100270.05;107931;1258;60401;-92
2023/04/19 09:51:00;;;;;;;12.50;2.50;;;;;;;20.32;36.06;100276.40;107802;1258;59621;-91
2023/04/19 09:53:35;;;;;;;12.60;2.90;;;;;;;20.33;35.68;100277.77;107831;1258;72315;-91
2023/04/19 09:56:05;;;;;;;9.90;2.50;;;;;;;20.30;35.64;100275.80;107960;1258;72296;-89
2023/04/19 09:58:33;;;;;;;14.00;3.30;;;;;;;20.16;36.12;100282.05;107838;1263;71769;-92
2023/04/19 10:01:18;;;;;;;10.30;2.70;;;;;;;20.15;36.21;100281.01;107855;1260;59937;-92
2023/04/19 10:03:48;;;;;;;12.20;3.10;;;;;;;20.26;36.41;100282.29;107921;1257;61065;-91
2023/04/19 10:06:17;;;;;;;12.40;3.50;;;;;;;20.38;36.03;100271.73;107826;1259;73698;-87
2023/04/19 10:08:49;;;;;;;;;;;;;;;20.34;35.52;100272.97;107817;1259;72906;-92
2023/04/19 10:11:21;;;;;;;15.80;3.30;;;;;;;20.31;36.34;100272.86;107801;1259;74020;-90
2023/04/19 10:13:56;;;;;;;15.80;3.30;;;;;;;20.28;35.59;100280.67;107806;1259;60356;-90
2023/04/19 10:16:24;;;;;;;16.10;3.10;;;;;;;20.26;35.72;100274.01;107819;1259;60544;-90
2023/04/19 10:18:53;;;;;;;15.70;2.90;;;;;;;20.33;35.76;100272.02;107706;1257;72012;-91
2023/04/19 10:21:22;;;;;;;16.00;4.00;;;;;;;20.34;35.17;100270.73;107589;1259;71642;-88
2023/04/19 10:23:50;;;;;;;19.80;4.00;;;;;;;20.24;35.02;100264.91;107765;1260;71543;-90
2023/04/19 10:26:18;;;;;;;19.40;3.50;;;;;;;20.05;35.26;100269.38;107891;1258;60024;-91
2023/04/19 10:28:47;;;;;;;17.90;3.30;;;;;;;19.94;35.65;100275.83;108814;1259;60335;-87
2023/04/19 10:31:18;;;;;;;21.00;3.60;;;;;;;19.91;35.59;100273.66;109125;1257;72835;-87
2023/04/19 10:33:51;;;;;;;16.80;3.90;;;;;;;19.98;36.01;100275.22;108962;1258;72632;-91
2023/04/19 10:36:20;;;;;;;21.70;4.50;;;;;;;20.04;36.17;100280.11;109004;1261;71478;-90
2023/04/19 10:38:54;;;;;;;15.80;3.60;;;;;;;20.14;36.14;100280.27;108319;1258;58901;-88
2023/04/19 10:41:23;;;;;;;16.40;3.50;;;;;;;20.37;36.17;100280.30;108067;1257;60312;-91
2023/04/19 10:43:55;;;;;;;23.60;4.40;;;;;;;20.68;36.20;100277.06;108167;1258;73023;-90
2023/04/19 10:46:30;;;;;;;21.90;3.90;;;;;;;20.98;35.61;100284.52;107997;1259;72282;-89
2023/04/19 10:49:01;;;;;;;16.90;3.80;;;;;;;21.05;34.65;100288.59;107943;1260;71397;-88
2023/04/19 10:51:37;;;;;;;19.50;4.00;;;;;;;21.03;35.23;100289.21;107869;1260;60358;-90
2023/04/19 10:54:08;;;;;;;22.50;3.60;;;;;;;21.13;35.87;100288.52;107890;1257;61122;-90
2023/04/19 10:56:40;;;;;;;19.30;4.00;;;;;;;21.26;35.52;100294.89;108585;1260;73970;-89
2023/04/19 10:59:20;;;;;;;16.30;4.10;;;;;;;21.36;35.60;100299.92;109126;1261;73404;-92
2023/04/19 11:01:56;;;;;;;17.00;4.60;;;;;;;21.36;34.98;100301.99;108940;1257;71794;-89
2023/04/19 11:04:31;;;;;;;19.60;4.10;;;;;;;21.28;35.26;100304.50;108157;1259;61280;-92
2023/04/19 11:07:02;;;;;;;14.80;3.80;;;;;;;21.28;35.08;100309.88;107910;1257;60374;-90
2023/04/19 11:09:40;;;;;;;18.20;4.10;;;;;;;21.16;35.26;100309.20;107836;1258;75713;-90
2023/04/19 11:12:15;;;;;;;16.60;3.40;;;;;;;21.01;35.96;100313.17;107782;1259;71558;-89
2023/04/19 11:14:48;;;;;;;14.20;3.90;;;;;;;20.91;35.92;100317.15;107842;1257;72329;-89
2023/04/19 11:17:24;;;;;;;18.10;3.60;;;;;;;20.87;35.95;100312.27;107886;1258;61365;-90
2023/04/19 11:20:05;;;;;;;13.60;3.20;;;;;;;20.73;35.98;100313.46;107738;1259;61215;-90
2023/04/19 11:22:38;;;;;;;16.10;3.70;;;;;;;20.59;35.92;100315.98;107670;1260;75134;-93
2023/04/19 11:25:17;;;;;;;15.40;3.70;;;;;;;20.41;36.37;100314.25;107792;1257;70910;-89
2023/04/19 11:27:51;;;;;;;13.00;3.30;;;;;;;20.23;36.66;100312.85;107761;1257;72876;-90
2023/04/19 11:30:27;;;;;;;19.40;3.80;;;;;;;20.07;37.18;100321.05;107857;1262;60621;-92
2023/04/19 11:32:56;;;;;;;14.90;3.40;;;;;;;20.10;36.76;100316.77;107635;1258;60307;-89
2023/04/19 11:35:27;;;;;;;19.70;3.50;;;;;;;20.08;37.04;100317.53;107848;1260;75089;-91
2023/04/19 11:37:57;;;;;;;20.70;4.10;;;;;;;19.98;37.19;100310.23;107765;1259;72830;-90